sensor_id;sensor_type;location;lat;lon;timestamp;pressure;altitude;pressure_sealevel;temperature;humidity
11099;BME280;12223;42.650;23.364;2022-11-06T00:00:42;94280.75;;;12.07;100.00
11099;BME280;12223;42.650;23.364;2022-11-06T00:03:09;94278.81;;;12.19;100.00
11099;BME280;12223;42.650;23.364;2022-11-06T00:05:40;94284.13;;;12.19;100.00
11099;BME280;12223;42.650;23.364;2022-11-06T00:08:30;94293.03;;;12.13;100.00
11099;BME280;12223;42.650;23.364;2022-11-06T00:10:57;94296.88;;;12.05;100.00
11099;BME280;12223;42.650;23.364;2022-11-06T00:13:23;94300.13;;;11.96;100.00
11099;BME280;12223;42.650;23.364;2022-11-06T00:15:50;94296.78;;;11.72;100.00
11099;BME280;12223;42.650;23.364;2022-11-06T00:18:18;94291.22;;;11.85;100.00
11099;BME280;12223;42.650;23.364;2022-11-06T00:20:46;94290.34;;;11.80;100.00
11099;BME280;12223;42.650;23.364;2022-11-06T00:23:12;94290.34;;;11.80;100.00
11099;BME280;12223;42.650;23.364;2022-11-06T00:25:40;94293.00;;;11.68;100.00
11099;BME280;12223;42.650;23.364;2022-11-06T00:28:07;94293.44;;;11.77;100.00
11099;BME280;12223;42.650;23.364;2022-11-06T00:30:34;94296.47;;;11.68;100.00
11099;BME280;12223;42.650;23.364;2022-11-06T00:33:01;94290.44;;;11.56;100.00
11099;BME280;12223;42.650;23.364;2022-11-06T00:35:28;94292.41;;;11.49;100.00
11099;BME280;12223;42.650;23.364;2022-11-06T00:37:57;94289.03;;;11.54;100.00
11099;BME280;12223;42.650;23.364;2022-11-06T00:40:23;94280.03;;;11.66;100.00
11099;BME280;12223;42.650;23.364;2022-11-06T00:42:55;94279.56;;;11.69;100.00
11099;BME280;12223;42.650;23.364;2022-11-06T00:45:23;94276.56;;;11.66;100.00
11099;BME280;12223;42.650;23.364;2022-11-06T00:47:51;94280.34;;;11.70;100.00
11099;BME280;12223;42.650;23.364;2022-11-06T00:50:18;94286.44;;;11.70;100.00
11099;BME280;12223;42.650;23.364;2022-11-06T00:52:45;94279.41;;;11.76;100.00
11099;BME280;12223;42.650;23.364;2022-11-06T00:55:13;94280.78;;;11.79;100.00
11099;BME280;12223;42.650;23.364;2022-11-06T00:57:40;94279.66;;;11.75;100.00
11099;BME280;12223;42.650;23.364;2022-11-06T01:00:08;94275.53;;;11.67;100.00
11099;BME280;12223;42.650;23.364;2022-11-06T01:02:36;94278.56;;;11.87;100.00
11099;BME280;12223;42.650;23.364;2022-11-06T01:05:03;94276.56;;;11.66;100.00
11099;BME280;12223;42.650;23.364;2022-11-06T01:07:30;94271.72;;;11.18;100.00
11099;BME280;12223;42.650;23.364;2022-11-06T01:09:57;94268.56;;;10.93;100.00
11099;BME280;12223;42.650;23.364;2022-11-06T01:12:25;94260.28;;;10.89;100.00
11099;BME280;12223;42.650;23.364;2022-11-06T01:14:52;94243.09;;;10.86;100.00
11099;BME280;12223;42.650;23.364;2022-11-06T01:17:19;94253.59;;;11.10;100.00
11099;BME280;12223;42.650;23.364;2022-11-06T01:19:46;94244.81;;;11.21;100.00
11099;BME280;12223;42.650;23.364;2022-11-06T01:22:13;94240.53;;;11.32;100.00
11099;BME280;12223;42.650;23.364;2022-11-06T01:24:40;94241.06;;;11.62;100.00
11099;BME280;12223;42.650;23.364;2022-11-06T01:27:09;94236.16;;;11.99;100.00
11099;BME280;12223;42.650;23.364;2022-11-06T01:29:37;94252.63;;;12.39;100.00
11099;BME280;12223;42.650;23.364;2022-11-06T01:32:05;94240.88;;;12.69;100.00
11099;BME280;12223;42.650;23.364;2022-11-06T01:34:32;94250.56;;;12.80;100.00
11099;BME280;12223;42.650;23.364;2022-11-06T01:36:59;94246.00;;;12.97;100.00
11099;BME280;12223;42.650;23.364;2022-11-06T01:39:26;94249.31;;;13.09;100.00
11099;BME280;12223;42.650;23.364;2022-11-06T01:41:53;94249.06;;;13.11;100.00
11099;BME280;12223;42.650;23.364;2022-11-06T01:47:26;94256.97;;;12.84;100.00
11099;BME280;12223;42.650;23.364;2022-11-06T01:49:56;94256.69;;;13.02;100.00
11099;BME280;12223;42.650;23.364;2022-11-06T01:52:26;94246.84;;;13.03;100.00
11099;BME280;12223;42.650;23.364;2022-11-06T01:54:57;94253.72;;;12.99;100.00
11099;BME280;12223;42.650;23.364;2022-11-06T01:57:28;94257.16;;;12.99;100.00
11099;BME280;12223;42.650;23.364;2022-11-06T01:59:58;94251.59;;;12.79;100.00
11099;BME280;12223;42.650;23.364;2022-11-06T02:02:32;94256.53;;;12.70;100.00
11099;BME280;12223;42.650;23.364;2022-11-06T02:04:59;94250.00;;;12.78;100.00
11099;BME280;12223;42.650;23.364;2022-11-06T02:07:26;94256.44;;;12.65;100.00
11099;BME280;12223;42.650;23.364;2022-11-06T02:09:53;94261.38;;;12.78;100.00
11099;BME280;12223;42.650;23.364;2022-11-06T02:12:30;94267.72;;;12.77;100.00
11099;BME280;12223;42.650;23.364;2022-11-06T02:15:02;94267.09;;;12.87;100.00
11099;BME280;12223;42.650;23.364;2022-11-06T02:17:51;94264.53;;;12.97;100.00
11099;BME280;12223;42.650;23.364;2022-11-06T02:20:26;94256.63;;;12.59;100.00
11099;BME280;12223;42.650;23.364;2022-11-06T02:23:27;94262.53;;;12.82;100.00
11099;BME280;12223;42.650;23.364;2022-11-06T02:26:05;94264.91;;;12.84;100.00
11099;BME280;12223;42.650;23.364;2022-11-06T02:28:38;94233.72;;;12.91;100.00
11099;BME280;12223;42.650;23.364;2022-11-06T02:31:11;94232.03;;;13.02;100.00
11099;BME280;12223;42.650;23.364;2022-11-06T02:33:43;94249.16;;;12.94;100.00
11099;BME280;12223;42.650;23.364;2022-11-06T02:36:16;94249.41;;;12.71;100.00
11099;BME280;12223;42.650;23.364;2022-11-06T02:38:50;94253.09;;;12.70;100.00
11099;BME280;12223;42.650;23.364;2022-11-06T02:41:21;94256.28;;;12.72;100.00
11099;BME280;12223;42.650;23.364;2022-11-06T02:43:52;94259.91;;;12.66;100.00
11099;BME280;12223;42.650;23.364;2022-11-06T02:46:24;94259.66;;;12.67;100.00
11099;BME280;12223;42.650;23.364;2022-11-06T02:48:58;94208.53;;;12.28;100.00
11099;BME280;12223;42.650;23.364;2022-11-06T02:51:28;94270.97;;;13.01;100.00
11099;BME280;12223;42.650;23.364;2022-11-06T02:53:59;94266.16;;;13.15;100.00
11099;BME280;12223;42.650;23.364;2022-11-06T02:56:32;94268.53;;;13.16;100.00
11099;BME280;12223;42.650;23.364;2022-11-06T02:59:06;94281.34;;;13.24;100.00
11099;BME280;12223;42.650;23.364;2022-11-06T03:01:41;94280.53;;;13.02;100.00
11099;BME280;12223;42.650;23.364;2022-11-06T03:04:13;94285.44;;;12.94;100.00
11099;BME280;12223;42.650;23.364;2022-11-06T03:06:45;94279.66;;;12.97;100.00
11099;BME280;12223;42.650;23.364;2022-11-06T03:09:17;94280.78;;;13.01;100.00
11099;BME280;12223;42.650;23.364;2022-11-06T03:11:49;94279.28;;;13.10;100.00
11099;BME280;12223;42.650;23.364;2022-11-06T03:14:33;94260.91;;;12.81;100.00
11099;BME280;12223;42.650;23.364;2022-11-06T03:17:09;94285.56;;;13.04;100.00
11099;BME280;12223;42.650;23.364;2022-11-06T03:19:45;94296.53;;;12.90;100.00
11099;BME280;12223;42.650;23.364;2022-11-06T03:22:15;94297.59;;;12.89;100.00
11099;BME280;12223;42.650;23.364;2022-11-06T03:24:51;94296.72;;;12.84;100.00
11099;BME280;12223;42.650;23.364;2022-11-06T03:27:24;94297.09;;;12.93;100.00
11099;BME280;12223;42.650;23.364;2022-11-06T03:30:02;94301.53;;;12.87;100.00
11099;BME280;12223;42.650;23.364;2022-11-06T03:32:33;94295.84;;;12.78;100.00
11099;BME280;12223;42.650;23.364;2022-11-06T03:35:05;94295.84;;;12.78;100.00
11099;BME280;12223;42.650;23.364;2022-11-06T03:37:38;94298.94;;;12.92;100.00
11099;BME280;12223;42.650;23.364;2022-11-06T03:40:12;94281.88;;;12.83;100.00
11099;BME280;12223;42.650;23.364;2022-11-06T03:42:41;94302.91;;;13.11;100.00
11099;BME280;12223;42.650;23.364;2022-11-06T03:45:17;94284.72;;;13.15;100.00
11099;BME280;12223;42.650;23.364;2022-11-06T03:47:48;94284.44;;;13.16;100.00
11099;BME280;12223;42.650;23.364;2022-11-06T03:50:21;94282.28;;;13.13;100.00
11099;BME280;12223;42.650;23.364;2022-11-06T03:52:54;94279.75;;;12.85;100.00
11099;BME280;12223;42.650;23.364;2022-11-06T03:55:28;94287.41;;;12.81;100.00
11099;BME280;12223;42.650;23.364;2022-11-06T03:58:00;94284.03;;;12.86;100.00
11099;BME280;12223;42.650;23.364;2022-11-06T04:00:33;94295.59;;;12.80;100.00
11099;BME280;12223;42.650;23.364;2022-11-06T04:03:05;94285.97;;;12.74;100.00
11099;BME280;12223;42.650;23.364;2022-11-06T04:05:38;94290.66;;;12.67;100.00
11099;BME280;12223;42.650;23.364;2022-11-06T04:08:08;94285.50;;;12.60;100.00
11099;BME280;12223;42.650;23.364;2022-11-06T04:11:05;94278.81;;;12.36;100.00
11099;BME280;12223;42.650;23.364;2022-11-06T04:13:50;94287.25;;;12.33;100.00
11099;BME280;12223;42.650;23.364;2022-11-06T04:16:29;94287.94;;;12.28;100.00
11099;BME280;12223;42.650;23.364;2022-11-06T04:18:57;94284.91;;;12.36;100.00
11099;BME280;12223;42.650;23.364;2022-11-06T04:21:31;94275.03;;;12.15;100.00
11099;BME280;12223;42.650;23.364;2022-11-06T04:24:09;94276.66;;;12.16;100.00
11099;BME280;12223;42.650;23.364;2022-11-06T04:27:17;94282.44;;;12.30;100.00
11099;BME280;12223;42.650;23.364;2022-11-06T04:30:02;94275.75;;;12.27;100.00
11099;BME280;12223;42.650;23.364;2022-11-06T04:32:39;94279.47;;;12.26;100.00
11099;BME280;12223;42.650;23.364;2022-11-06T04:35:14;94258.91;;;12.17;100.00
11099;BME280;12223;42.650;23.364;2022-11-06T04:37:51;94268.78;;;12.38;100.00
11099;BME280;12223;42.650;23.364;2022-11-06T04:40:24;94261.81;;;12.32;100.00
11099;BME280;12223;42.650;23.364;2022-11-06T04:43:00;94257.47;;;12.26;100.00
11099;BME280;12223;42.650;23.364;2022-11-06T04:45:36;94250.19;;;12.16;100.00
11099;BME280;12223;42.650;23.364;2022-11-06T04:48:07;94244.16;;;12.21;100.00
11099;BME280;12223;42.650;23.364;2022-11-06T04:50:38;94246.78;;;12.21;100.00
11099;BME280;12223;42.650;23.364;2022-11-06T04:53:07;94240.31;;;12.12;100.00
11099;BME280;12223;42.650;23.364;2022-11-06T04:55:43;94243.53;;;12.14;100.00
11099;BME280;12223;42.650;23.364;2022-11-06T04:58:11;94242.00;;;12.01;100.00
11099;BME280;12223;42.650;23.364;2022-11-06T05:00:41;94229.88;;;12.05;100.00
11099;BME280;12223;42.650;23.364;2022-11-06T05:03:13;94240.47;;;12.05;100.00
11099;BME280;12223;42.650;23.364;2022-11-06T05:05:40;94212.72;;;11.91;100.00
11099;BME280;12223;42.650;23.364;2022-11-06T05:08:12;94225.72;;;11.92;100.00
11099;BME280;12223;42.650;23.364;2022-11-06T05:10:39;94225.63;;;12.04;100.00
11099;BME280;12223;42.650;23.364;2022-11-06T05:13:06;94248.19;;;12.06;100.00
11099;BME280;12223;42.650;23.364;2022-11-06T05:15:33;94249.59;;;12.14;100.00
11099;BME280;12223;42.650;23.364;2022-11-06T05:18:00;94233.56;;;12.04;100.00
11099;BME280;12223;42.650;23.364;2022-11-06T05:20:30;94246.88;;;12.09;100.00
11099;BME280;12223;42.650;23.364;2022-11-06T05:22:57;94260.03;;;12.21;100.00
11099;BME280;12223;42.650;23.364;2022-11-06T05:25:27;94261.97;;;12.25;100.00
11099;BME280;12223;42.650;23.364;2022-11-06T05:27:58;94248.03;;;12.13;100.00
11099;BME280;12223;42.650;23.364;2022-11-06T05:30:25;94267.91;;;12.32;100.00
11099;BME280;12223;42.650;23.364;2022-11-06T05:32:52;94268.38;;;12.29;100.00
11099;BME280;12223;42.650;23.364;2022-11-06T05:35:19;94260.78;;;12.33;100.00
11099;BME280;12223;42.650;23.364;2022-11-06T05:37:48;94265.81;;;12.34;100.00
11099;BME280;12223;42.650;23.364;2022-11-06T05:40:15;94255.66;;;12.26;100.00
11099;BME280;12223;42.650;23.364;2022-11-06T05:42:43;94261.81;;;12.32;100.00
11099;BME280;12223;42.650;23.364;2022-11-06T05:45:11;94278.41;;;12.44;100.00
11099;BME280;12223;42.650;23.364;2022-11-06T05:47:41;94284.56;;;12.49;100.00
11099;BME280;12223;42.650;23.364;2022-11-06T05:50:09;94290.34;;;12.46;100.00
11099;BME280;12223;42.650;23.364;2022-11-06T05:52:36;94301.34;;;12.55;100.00
11099;BME280;12223;42.650;23.364;2022-11-06T05:55:06;94306.47;;;12.62;100.00
11099;BME280;12223;42.650;23.364;2022-11-06T05:57:33;94279.03;;;12.34;100.00
11099;BME280;12223;42.650;23.364;2022-11-06T06:00:00;94321.41;;;12.68;100.00
11099;BME280;12223;42.650;23.364;2022-11-06T06:02:27;94325.72;;;12.74;100.00
11099;BME280;12223;42.650;23.364;2022-11-06T06:04:54;94329.19;;;12.74;100.00
11099;BME280;12223;42.650;23.364;2022-11-06T06:07:21;94338.63;;;12.87;100.00
11099;BME280;12223;42.650;23.364;2022-11-06T06:09:48;94328.84;;;12.87;100.00
11099;BME280;12223;42.650;23.364;2022-11-06T06:12:16;94348.72;;;12.90;100.00
11099;BME280;12223;42.650;23.364;2022-11-06T06:14:43;94341.34;;;12.92;100.00
11099;BME280;12223;42.650;23.364;2022-11-06T06:17:10;94348.44;;;12.86;100.00
11099;BME280;12223;42.650;23.364;2022-11-06T06:19:37;94355.75;;;12.96;100.00
11099;BME280;12223;42.650;23.364;2022-11-06T06:22:04;94364.28;;;13.03;100.00
11099;BME280;12223;42.650;23.364;2022-11-06T06:24:31;94358.69;;;13.00;100.00
11099;BME280;12223;42.650;23.364;2022-11-06T06:26:58;94378.19;;;13.10;100.00
11099;BME280;12223;42.650;23.364;2022-11-06T06:29:26;94378.13;;;13.05;100.00
11099;BME280;12223;42.650;23.364;2022-11-06T06:31:53;94388.72;;;13.05;100.00
11099;BME280;12223;42.650;23.364;2022-11-06T06:34:20;94383.25;;;13.12;100.00
11099;BME280;12223;42.650;23.364;2022-11-06T06:36:48;94389.03;;;13.09;100.00
11099;BME280;12223;42.650;23.364;2022-11-06T06:39:16;94395.94;;;13.10;100.00
11099;BME280;12223;42.650;23.364;2022-11-06T06:41:43;94367.13;;;12.97;100.00
11099;BME280;12223;42.650;23.364;2022-11-06T06:44:10;94382.53;;;13.16;100.00
11099;BME280;12223;42.650;23.364;2022-11-06T06:46:38;94392.91;;;13.18;100.00
11099;BME280;12223;42.650;23.364;2022-11-06T06:49:05;94402.53;;;13.24;100.00
11099;BME280;12223;42.650;23.364;2022-11-06T06:51:32;94405.13;;;13.19;100.00
11099;BME280;12223;42.650;23.364;2022-11-06T06:53:59;94404.63;;;13.22;100.00
11099;BME280;12223;42.650;23.364;2022-11-06T06:56:26;94397.63;;;13.33;100.00
11099;BME280;12223;42.650;23.364;2022-11-06T06:58:53;94403.91;;;13.26;100.00
11099;BME280;12223;42.650;23.364;2022-11-06T07:01:20;94414.81;;;13.30;100.00
11099;BME280;12223;42.650;23.364;2022-11-06T07:03:48;94406.22;;;13.40;100.00
11099;BME280;12223;42.650;23.364;2022-11-06T07:06:17;94427.44;;;13.61;100.00
11099;BME280;12223;42.650;23.364;2022-11-06T07:08:45;94433.88;;;13.65;100.00
11099;BME280;12223;42.650;23.364;2022-11-06T07:11:12;94440.53;;;13.68;100.00
11099;BME280;12223;42.650;23.364;2022-11-06T07:13:39;94442.69;;;13.71;100.00
11099;BME280;12223;42.650;23.364;2022-11-06T07:16:07;94441.31;;;13.68;100.00
11099;BME280;12223;42.650;23.364;2022-11-06T07:18:35;94447.88;;;13.83;100.00
11099;BME280;12223;42.650;23.364;2022-11-06T07:21:05;94446.03;;;13.83;100.00
11099;BME280;12223;42.650;23.364;2022-11-06T07:23:33;94463.81;;;13.83;100.00
11099;BME280;12223;42.650;23.364;2022-11-06T07:26:00;94451.06;;;13.85;100.00
11099;BME280;12223;42.650;23.364;2022-11-06T07:28:32;94458.16;;;13.79;100.00
11099;BME280;12223;42.650;23.364;2022-11-06T07:31:01;94466.81;;;13.91;100.00
11099;BME280;12223;42.650;23.364;2022-11-06T07:33:28;94465.22;;;13.90;100.00
11099;BME280;12223;42.650;23.364;2022-11-06T07:36:04;94465.78;;;14.14;100.00
11099;BME280;12223;42.650;23.364;2022-11-06T07:38:35;94472.38;;;14.12;100.00
11099;BME280;12223;42.650;23.364;2022-11-06T07:41:04;94477.00;;;14.21;100.00
11099;BME280;12223;42.650;23.364;2022-11-06T07:43:32;94469.38;;;14.30;100.00
11099;BME280;12223;42.650;23.364;2022-11-06T07:45:59;94484.31;;;14.36;100.00
11099;BME280;12223;42.650;23.364;2022-11-06T07:48:27;94473.84;;;14.24;100.00
11099;BME280;12223;42.650;23.364;2022-11-06T07:50:53;94482.59;;;14.41;100.00
11099;BME280;12223;42.650;23.364;2022-11-06T07:53:22;94486.63;;;14.49;100.00
11099;BME280;12223;42.650;23.364;2022-11-06T07:55:50;94486.38;;;14.51;100.00
11099;BME280;12223;42.650;23.364;2022-11-06T07:58:21;94481.91;;;14.56;100.00
11099;BME280;12223;42.650;23.364;2022-11-06T08:00:50;94493.34;;;14.57;100.00
11099;BME280;12223;42.650;23.364;2022-11-06T08:03:17;94492.50;;;14.51;100.00
11099;BME280;12223;42.650;23.364;2022-11-06T08:05:44;94485.81;;;14.48;100.00
11099;BME280;12223;42.650;23.364;2022-11-06T08:08:12;94491.69;;;14.51;100.00
11099;BME280;12223;42.650;23.364;2022-11-06T08:10:40;94491.25;;;14.37;100.00
11099;BME280;12223;42.650;23.364;2022-11-06T08:13:08;94475.38;;;14.42;100.00
11099;BME280;12223;42.650;23.364;2022-11-06T08:15:36;94492.50;;;14.51;100.00
11099;BME280;12223;42.650;23.364;2022-11-06T08:18:03;94489.44;;;14.64;100.00
11099;BME280;12223;42.650;23.364;2022-11-06T08:20:31;94501.63;;;14.60;100.00
11099;BME280;12223;42.650;23.364;2022-11-06T08:22:58;94491.69;;;14.51;100.00
11099;BME280;12223;42.650;23.364;2022-11-06T08:25:26;94501.13;;;14.63;100.00
11099;BME280;12223;42.650;23.364;2022-11-06T08:27:55;94507.97;;;14.54;100.00
11099;BME280;12223;42.650;23.364;2022-11-06T08:30:22;94506.88;;;14.55;100.00
11099;BME280;12223;42.650;23.364;2022-11-06T08:32:49;94505.78;;;14.51;100.00
11099;BME280;12223;42.650;23.364;2022-11-06T08:35:17;94492.97;;;14.48;100.00
11099;BME280;12223;42.650;23.364;2022-11-06T08:37:43;94493.72;;;14.65;100.00
11099;BME280;12223;42.650;23.364;2022-11-06T08:40:11;94489.34;;;14.54;100.00
11099;BME280;12223;42.650;23.364;2022-11-06T08:42:39;94482.47;;;14.58;100.00
11099;BME280;12223;42.650;23.364;2022-11-06T08:45:08;94482.91;;;14.77;100.00
11099;BME280;12223;42.650;23.364;2022-11-06T08:47:35;94502.38;;;14.82;100.00
11099;BME280;12223;42.650;23.364;2022-11-06T08:50:03;94505.72;;;15.00;100.00
11099;BME280;12223;42.650;23.364;2022-11-06T08:52:30;94512.59;;;14.96;100.00
11099;BME280;12223;42.650;23.364;2022-11-06T08:54:57;94511.56;;;14.97;100.00
11099;BME280;12223;42.650;23.364;2022-11-06T08:57:24;94485.28;;;15.05;100.00
11099;BME280;12223;42.650;23.364;2022-11-06T08:59:50;94481.03;;;15.04;100.00
11099;BME280;12223;42.650;23.364;2022-11-06T09:02:19;94504.09;;;15.30;100.00
11099;BME280;12223;42.650;23.364;2022-11-06T09:04:49;94517.75;;;15.39;100.00
11099;BME280;12223;42.650;23.364;2022-11-06T09:07:16;94504.75;;;15.43;100.00
11099;BME280;12223;42.650;23.364;2022-11-06T09:09:43;94522.19;;;15.60;100.00
11099;BME280;12223;42.650;23.364;2022-11-06T09:12:10;94522.81;;;15.73;100.00
11099;BME280;12223;42.650;23.364;2022-11-06T09:14:37;94514.50;;;15.69;100.00
11099;BME280;12223;42.650;23.364;2022-11-06T09:17:04;94523.06;;;15.71;100.00
11099;BME280;12223;42.650;23.364;2022-11-06T09:19:32;94535.75;;;15.59;100.00
11099;BME280;12223;42.650;23.364;2022-11-06T09:21:59;94526.81;;;15.43;100.00
11099;BME280;12223;42.650;23.364;2022-11-06T09:24:26;94532.13;;;15.43;100.00
11099;BME280;12223;42.650;23.364;2022-11-06T09:26:53;94535.00;;;15.37;100.00
11099;BME280;12223;42.650;23.364;2022-11-06T09:29:19;94527.28;;;15.30;100.00
11099;BME280;12223;42.650;23.364;2022-11-06T09:31:46;94534.66;;;15.23;100.00
11099;BME280;12223;42.650;23.364;2022-11-06T09:34:13;94534.06;;;15.16;100.00
11099;BME280;12223;42.650;23.364;2022-11-06T09:36:41;94544.09;;;15.09;100.00
11099;BME280;12223;42.650;23.364;2022-11-06T09:39:08;94532.63;;;15.03;100.00
11099;BME280;12223;42.650;23.364;2022-11-06T09:41:41;94540.59;;;15.03;100.00
11099;BME280;12223;42.650;23.364;2022-11-06T09:44:21;94513.84;;;14.88;100.00
11099;BME280;12223;42.650;23.364;2022-11-06T09:46:52;94532.94;;;15.12;100.00
11099;BME280;12223;42.650;23.364;2022-11-06T09:49:27;94522.31;;;15.12;100.00
11099;BME280;12223;42.650;23.364;2022-11-06T09:52:00;94514.25;;;15.02;100.00
11099;BME280;12223;42.650;23.364;2022-11-06T09:54:33;94539.63;;;15.14;100.00
11099;BME280;12223;42.650;23.364;2022-11-06T09:57:04;94541.94;;;15.06;100.00
11099;BME280;12223;42.650;23.364;2022-11-06T09:59:35;94538.94;;;14.97;100.00
11099;BME280;12223;42.650;23.364;2022-11-06T10:02:18;94538.78;;;15.09;100.00
11099;BME280;12223;42.650;23.364;2022-11-06T10:04:52;94530.34;;;15.17;100.00
11099;BME280;12223;42.650;23.364;2022-11-06T10:07:33;94543.44;;;15.23;100.00
11099;BME280;12223;42.650;23.364;2022-11-06T10:10:02;94532.13;;;15.11;100.00
11099;BME280;12223;42.650;23.364;2022-11-06T10:12:38;94533.50;;;15.14;100.00
11099;BME280;12223;42.650;23.364;2022-11-06T10:15:18;94536.19;;;15.19;100.00
11099;BME280;12223;42.650;23.364;2022-11-06T10:17:53;94531.63;;;15.09;100.00
11099;BME280;12223;42.650;23.364;2022-11-06T10:20:29;94516.88;;;14.97;100.00
11099;BME280;12223;42.650;23.364;2022-11-06T10:23:03;94514.00;;;15.03;100.00
11099;BME280;12223;42.650;23.364;2022-11-06T10:25:45;94524.41;;;15.05;100.00
11099;BME280;12223;42.650;23.364;2022-11-06T10:28:26;94531.84;;;15.08;100.00
11099;BME280;12223;42.650;23.364;2022-11-06T10:31:04;94524.41;;;15.05;100.00
11099;BME280;12223;42.650;23.364;2022-11-06T10:33:48;94527.09;;;15.10;100.00
11099;BME280;12223;42.650;23.364;2022-11-06T10:36:21;94520.44;;;15.12;100.00
11099;BME280;12223;42.650;23.364;2022-11-06T10:38:51;94522.44;;;15.27;100.00
11099;BME280;12223;42.650;23.364;2022-11-06T10:41:22;94530.88;;;15.19;100.00
11099;BME280;12223;42.650;23.364;2022-11-06T10:43:52;94515.41;;;15.11;100.00
11099;BME280;12223;42.650;23.364;2022-11-06T10:46:26;94525.84;;;15.17;100.00
11099;BME280;12223;42.650;23.364;2022-11-06T10:48:58;94523.91;;;15.13;100.00
11099;BME280;12223;42.650;23.364;2022-11-06T10:51:49;94516.97;;;14.80;100.00
11099;BME280;12223;42.650;23.364;2022-11-06T10:54:30;94527.91;;;14.57;100.00
11099;BME280;12223;42.650;23.364;2022-11-06T10:57:10;94520.75;;;14.14;100.00
11099;BME280;12223;42.650;23.364;2022-11-06T10:59:41;94494.03;;;13.82;100.00
11099;BME280;12223;42.650;23.364;2022-11-06T11:02:21;94504.59;;;13.77;100.00
11099;BME280;12223;42.650;23.364;2022-11-06T11:04:50;94496.75;;;13.65;100.00
11099;BME280;12223;42.650;23.364;2022-11-06T11:07:16;94482.03;;;13.57;100.00
11099;BME280;12223;42.650;23.364;2022-11-06T11:09:45;94471.50;;;13.62;100.00
11099;BME280;12223;42.650;23.364;2022-11-06T11:12:22;94469.81;;;13.56;100.00
11099;BME280;12223;42.650;23.364;2022-11-06T11:15:10;94433.97;;;13.54;100.00
11099;BME280;12223;42.650;23.364;2022-11-06T11:17:39;94479.56;;;13.89;100.00
11099;BME280;12223;42.650;23.364;2022-11-06T11:20:28;94475.34;;;13.93;100.00
11099;BME280;12223;42.650;23.364;2022-11-06T11:23:16;94475.16;;;14.00;100.00
11099;BME280;12223;42.650;23.364;2022-11-06T11:25:46;94489.34;;;14.10;100.00
11099;BME280;12223;42.650;23.364;2022-11-06T11:28:26;94478.88;;;14.21;100.00
11099;BME280;12223;42.650;23.364;2022-11-06T11:30:54;94480.00;;;14.30;100.00
11099;BME280;12223;42.650;23.364;2022-11-06T11:33:24;94489.19;;;14.39;100.00
11099;BME280;12223;42.650;23.364;2022-11-06T11:35:52;94477.97;;;14.37;100.00
11099;BME280;12223;42.650;23.364;2022-11-06T11:38:20;94468.28;;;14.26;100.00
11099;BME280;12223;42.650;23.364;2022-11-06T11:40:49;94434.56;;;14.04;100.00
11099;BME280;12223;42.650;23.364;2022-11-06T11:43:22;94446.44;;;14.19;100.00
11099;BME280;12223;42.650;23.364;2022-11-06T11:48:52;94463.44;;;13.96;100.00
11099;BME280;12223;42.650;23.364;2022-11-06T11:51:30;94450.22;;;13.79;100.00
11099;BME280;12223;42.650;23.364;2022-11-06T11:54:02;94459.47;;;13.77;100.00
11099;BME280;12223;42.650;23.364;2022-11-06T11:56:34;94449.97;;;13.81;100.00
11099;BME280;12223;42.650;23.364;2022-11-06T11:59:15;94455.09;;;13.87;100.00
11099;BME280;12223;42.650;23.364;2022-11-06T12:01:44;94455.16;;;13.71;100.00
11099;BME280;12223;42.650;23.364;2022-11-06T12:04:17;94464.72;;;13.72;100.00
11099;BME280;12223;42.650;23.364;2022-11-06T12:06:50;94460.75;;;13.74;100.00
11099;BME280;12223;42.650;23.364;2022-11-06T12:09:19;94480.88;;;13.70;100.00
11099;BME280;12223;42.650;23.364;2022-11-06T12:11:48;94466.44;;;13.61;100.00
11099;BME280;12223;42.650;23.364;2022-11-06T12:14:27;94456.63;;;13.61;100.00
11099;BME280;12223;42.650;23.364;2022-11-06T12:16:59;94460.66;;;13.64;100.00
11099;BME280;12223;42.650;23.364;2022-11-06T12:19:31;94470.69;;;13.62;100.00
11099;BME280;12223;42.650;23.364;2022-11-06T12:22:03;94477.03;;;13.61;100.00
11099;BME280;12223;42.650;23.364;2022-11-06T12:24:36;94466.44;;;13.61;100.00
11099;BME280;12223;42.650;23.364;2022-11-06T12:27:10;94468.50;;;13.76;100.00
11099;BME280;12223;42.650;23.364;2022-11-06T12:29:42;94472.88;;;13.87;100.00
11099;BME280;12223;42.650;23.364;2022-11-06T12:32:20;94492.03;;;13.89;100.00
11099;BME280;12223;42.650;23.364;2022-11-06T12:34:57;94488.63;;;13.93;100.00
11099;BME280;12223;42.650;23.364;2022-11-06T12:37:36;94484.53;;;14.07;100.00
11099;BME280;12223;42.650;23.364;2022-11-06T12:40:15;94497.44;;;14.21;100.00
11099;BME280;12223;42.650;23.364;2022-11-06T12:42:52;94506.59;;;14.08;100.00
11099;BME280;12223;42.650;23.364;2022-11-06T12:45:26;94497.03;;;14.07;100.00
11099;BME280;12223;42.650;23.364;2022-11-06T12:48:04;94492.88;;;13.94;100.00
11099;BME280;12223;42.650;23.364;2022-11-06T12:50:36;94498.81;;;14.01;100.00
11099;BME280;12223;42.650;23.364;2022-11-06T12:53:28;94501.72;;;14.00;100.00
11099;BME280;12223;42.650;23.364;2022-11-06T12:56:05;94495.13;;;14.02;100.00
11099;BME280;12223;42.650;23.364;2022-11-06T12:58:56;94502.63;;;14.10;100.00
11099;BME280;12223;42.650;23.364;2022-11-06T13:01:37;94510.41;;;14.17;100.00
11099;BME280;12223;42.650;23.364;2022-11-06T13:04:22;94509.41;;;14.23;100.00
11099;BME280;12223;42.650;23.364;2022-11-06T13:07:25;94512.97;;;14.29;100.00